Time;durP1;ratioP1;P1;durP2;ratioP2;P2;SDS_P1;SDS_P2;PMS_P1;PMS_P2;Temp;Humidity;BMP_temperature;BMP_pressure;BME280_temperature;BME280_humidity;BME280_pressure;Samples;Min_cycle;Max_cycle;Signal;HPM_P1;HPM_P2
2021/05/02 00:01:13;;;;;;;61.00;31.62;;;;;;;12.30;85.47;94027.88;1798420;79;21095;-52
2021/05/02 00:03:41;;;;;;;50.80;28.20;;;;;;;12.34;85.39;94027.09;1798398;78;21405;-52
2021/05/02 00:06:11;;;;;;;54.65;30.50;;;;;;;12.37;85.22;94028.91;1798510;79;21071;-51
2021/05/02 00:08:41;;;;;;;50.55;31.07;;;;;;;12.39;85.48;94018.15;1798464;79;21087;-50
2021/05/02 00:11:11;;;;;;;42.67;25.82;;;;;;;12.39;85.30;94011.25;1798468;79;21185;-53
2021/05/02 00:13:40;;;;;;;38.30;24.57;;;;;;;12.37;85.28;94004.69;1798481;79;21187;-51
2021/05/02 00:16:08;;;;;;;36.48;20.35;;;;;;;12.37;85.35;94004.69;1798475;79;21063;-51
2021/05/02 00:18:37;;;;;;;32.53;20.20;;;;;;;12.37;85.26;93998.56;1798497;79;21071;-50
2021/05/02 00:21:08;;;;;;;31.50;19.73;;;;;;;12.35;85.73;93996.91;1798473;79;21138;-50
2021/05/02 00:23:38;;;;;;;33.28;22.02;;;;;;;12.40;85.85;94000.97;1798487;79;21188;-50
2021/05/02 00:26:06;;;;;;;40.35;24.87;;;;;;;12.41;85.64;94006.02;1798401;79;21229;-51
2021/05/02 00:28:35;;;;;;;39.58;24.37;;;;;;;12.39;85.52;94004.96;1798464;79;21136;-49
2021/05/02 00:31:06;;;;;;;39.80;23.12;;;;;;;12.35;85.63;93996.91;1798463;79;21157;-51
2021/05/02 00:33:37;;;;;;;35.75;23.20;;;;;;;12.35;85.76;93983.11;1798470;79;21142;-51
2021/05/02 00:36:05;;;;;;;46.73;27.98;;;;;;;12.37;85.82;93981.23;1798423;79;22381;-51
2021/05/02 00:38:36;;;;;;;43.05;25.75;;;;;;;12.39;85.90;93975.40;1798356;79;21147;-52
2021/05/02 00:41:17;;;;;;;38.17;23.25;;;;;;;12.43;85.96;93963.55;1798493;78;21143;-51
2021/05/02 00:44:05;;;;;;;32.03;18.27;;;;;;;12.47;85.62;93954.45;1797720;79;21130;-51
2021/05/02 00:46:46;;;;;;;31.80;20.17;;;;;;;12.44;85.49;93941.62;1798531;79;21138;-51
2021/05/02 00:49:27;;;;;;;26.60;16.40;;;;;;;12.40;85.86;93941.66;1798318;79;21202;-50
2021/05/02 00:51:59;;;;;;;30.00;17.73;;;;;;;12.40;85.72;93935.54;1798414;79;21118;-51
2021/05/02 00:54:42;;;;;;;26.70;15.68;;;;;;;12.35;85.69;93940.36;1798219;79;21492;-52
2021/05/02 00:57:17;;;;;;;29.42;17.80;;;;;;;12.33;85.85;93932.41;1795581;80;21059;-50
2021/05/02 01:00:03;;;;;;;25.62;18.32;;;;;;;12.32;85.76;93934.42;1795400;80;21107;-50
2021/05/02 01:02:34;;;;;;;27.90;17.02;;;;;;;12.26;85.83;93928.03;1777724;79;21366;-51
2021/05/02 01:05:07;;;;;;;20.88;13.98;;;;;;;12.26;86.02;93937.69;1795403;80;21178;-51
2021/05/02 01:07:40;;;;;;;24.37;13.83;;;;;;;12.31;86.59;93927.39;1795300;78;21159;-50
2021/05/02 01:10:11;;;;;;;19.05;11.95;;;;;;;12.40;86.21;93915.45;1795390;80;21083;-52
2021/05/02 01:12:47;;;;;;;15.63;10.53;;;;;;;12.39;85.94;93912.56;1795391;80;21074;-51
2021/05/02 01:15:23;;;;;;;18.92;12.05;;;;;;;12.38;86.12;93925.61;1795360;80;21204;-51
2021/05/02 01:18:08;;;;;;;21.17;11.28;;;;;;;12.33;85.93;93918.02;1778395;80;21107;-51
2021/05/02 01:20:41;;;;;;;19.25;11.65;;;;;;;12.26;85.85;93902.48;1795368;80;21079;-51
2021/05/02 01:23:19;;;;;;;20.45;12.28;;;;;;;12.22;86.25;93902.66;1795590;78;21475;-50
2021/05/02 01:25:47;;;;;;;27.30;17.30;;;;;;;12.24;86.41;93896.05;1795508;79;21495;-51
2021/05/02 01:28:15;;;;;;;28.92;17.80;;;;;;;12.20;86.19;93886.44;1752643;80;21392;-51
2021/05/02 01:30:43;;;;;;;26.30;16.97;;;;;;;12.14;86.41;93880.09;1795330;80;21151;-50
2021/05/02 01:33:11;;;;;;;32.17;15.43;;;;;;;12.14;86.60;93860.79;1795277;80;21115;-51
2021/05/02 01:35:40;;;;;;;24.00;15.40;;;;;;;12.15;86.62;93847.92;1795335;80;21083;-50
2021/05/02 01:38:07;;;;;;;23.40;14.98;;;;;;;12.16;86.63;93851.42;1795348;80;21075;-50
2021/05/02 01:40:35;;;;;;;21.80;14.70;;;;;;;12.17;87.03;93848.20;1795321;80;23462;-50
2021/05/02 01:43:04;;;;;;;21.90;13.60;;;;;;;12.24;87.10;93829.13;1795187;78;21112;-50
2021/05/02 01:45:33;;;;;;;25.15;14.10;;;;;;;12.25;86.67;93831.38;1795328;80;21575;-50
2021/05/02 01:48:05;;;;;;;23.22;15.03;;;;;;;12.28;86.77;93831.05;1795333;80;21162;-50
2021/05/02 01:50:59;;;;;;;22.13;13.22;;;;;;;12.33;86.69;93826.23;1795467;80;21547;-50
2021/05/02 01:53:29;;;;;;;17.90;12.35;;;;;;;12.35;86.78;93814.09;1795286;80;22176;-50
2021/05/02 01:56:00;;;;;;;16.65;11.80;;;;;;;12.37;86.53;93808.25;1795170;80;21488;-51
2021/05/02 01:58:31;;;;;;;17.02;11.30;;;;;;;12.37;86.21;93808.85;1795494;79;21063;-50
2021/05/02 02:01:13;;;;;;;16.95;12.35;;;;;;;12.34;86.16;93806.45;1795330;80;21060;-51
2021/05/02 02:03:42;;;;;;;24.27;15.65;;;;;;;12.25;86.05;93803.80;1795320;78;21492;-51
2021/05/02 02:06:11;;;;;;;25.10;15.40;;;;;;;12.13;85.96;93809.64;1795294;80;21423;-52
2021/05/02 02:08:42;;;;;;;31.33;16.93;;;;;;;12.05;86.24;93799.63;1778189;80;21083;-51
2021/05/02 02:11:10;;;;;;;28.47;18.98;;;;;;;12.03;86.43;93795.83;1795323;80;21044;-51
2021/05/02 02:13:38;;;;;;;32.90;20.15;;;;;;;12.06;86.35;93786.63;1795387;80;21055;-50
2021/05/02 02:16:07;;;;;;;29.65;19.98;;;;;;;12.03;86.40;93771.79;1795331;80;21122;-51
2021/05/02 02:18:35;;;;;;;34.75;20.50;;;;;;;12.04;86.99;93771.92;1795316;80;21174;-51
2021/05/02 02:21:07;;;;;;;29.67;18.95;;;;;;;12.07;86.95;93776.48;1795214;80;21586;-51
2021/05/02 02:23:41;;;;;;;26.77;17.32;;;;;;;12.11;87.15;93779.05;1795426;80;21556;-50
2021/05/02 02:26:26;;;;;;;24.40;16.17;;;;;;;12.19;87.19;93768.52;1777762;80;21526;-50
2021/05/02 02:28:54;;;;;;;35.40;18.17;;;;;;;12.24;86.95;93767.08;1795266;80;21115;-50
2021/05/02 02:31:23;;;;;;;25.92;16.05;;;;;;;12.24;86.79;93767.08;1795318;80;21233;-50
2021/05/02 02:33:51;;;;;;;26.70;15.98;;;;;;;12.25;87.01;93769.97;1795201;80;21059;-51
2021/05/02 02:36:19;;;;;;;29.18;20.10;;;;;;;12.27;86.75;93763.35;1795314;80;21063;-49
2021/05/02 02:38:47;;;;;;;30.23;17.87;;;;;;;12.25;86.55;93762.45;1795289;80;21076;-51
2021/05/02 02:41:17;;;;;;;26.52;17.52;;;;;;;12.23;86.70;93764.92;1795362;80;21139;-51
2021/05/02 02:43:55;;;;;;;29.63;16.90;;;;;;;12.27;86.96;93766.86;1795298;80;22472;-51
2021/05/02 02:46:25;;;;;;;29.67;17.95;;;;;;;12.28;86.73;93765.61;1795060;79;21146;-51
2021/05/02 02:48:58;;;;;;;28.95;16.35;;;;;;;12.30;87.03;93751.35;1795303;79;21190;-50
2021/05/02 02:51:27;;;;;;;33.70;17.95;;;;;;;12.34;86.89;93745.78;1795303;80;21131;-52
2021/05/02 02:53:59;;;;;;;35.10;20.95;;;;;;;12.36;86.85;93748.04;1795251;80;21143;-50
2021/05/02 02:56:28;;;;;;;27.17;18.07;;;;;;;12.38;86.69;93745.55;1795448;80;21196;-51
2021/05/02 02:59:10;;;;;;;29.70;17.80;;;;;;;12.35;86.52;93740.40;1795312;80;21159;-50
2021/05/02 03:01:38;;;;;;;28.73;18.23;;;;;;;12.31;86.42;93745.38;1793193;78;21075;-52
2021/05/02 03:04:07;;;;;;;33.00;21.45;;;;;;;12.28;86.53;93743.55;1777867;80;21040;-51
2021/05/02 03:06:35;;;;;;;35.85;23.27;;;;;;;12.25;86.41;93738.27;1795487;80;21096;-51
2021/05/02 03:09:04;;;;;;;26.87;19.70;;;;;;;12.17;86.50;93744.03;1795508;80;22209;-51
2021/05/02 03:11:32;;;;;;;29.45;19.55;;;;;;;12.10;86.55;93733.41;1795479;80;21590;-50
2021/05/02 03:14:02;;;;;;;29.52;18.95;;;;;;;12.01;86.59;93730.16;1795339;78;21098;-50
2021/05/02 03:16:30;;;;;;;25.72;19.30;;;;;;;11.96;86.88;93722.59;1795451;80;21076;-50
2021/05/02 03:19:26;;;;;;;29.37;19.45;;;;;;;11.97;87.35;93726.09;1795412;80;21055;-55
2021/05/02 03:22:10;;;;;;;29.05;18.98;;;;;;;12.02;87.55;93720.66;1795448;80;22189;-53
2021/05/02 03:24:43;;;;;;;31.25;19.35;;;;;;;12.08;87.65;93717.34;1795472;80;21843;-51
2021/05/02 03:27:21;;;;;;;33.23;19.70;;;;;;;12.12;87.46;93715.14;1795418;79;21084;-51
2021/05/02 03:29:49;;;;;;;32.08;21.48;;;;;;;12.17;87.57;93718.61;1795477;80;21507;-51
2021/05/02 03:32:17;;;;;;;32.70;21.33;;;;;;;12.24;87.62;93722.32;1795441;80;21067;-52
2021/05/02 03:34:45;;;;;;;34.53;21.68;;;;;;;12.30;87.57;93717.62;1777835;80;21189;-50
2021/05/02 03:37:19;;;;;;;32.83;21.45;;;;;;;12.32;87.09;93724.83;1777831;80;21170;-51
2021/05/02 03:39:50;;;;;;;30.32;20.85;;;;;;;12.32;86.95;93719.91;1778535;80;21067;-52
2021/05/02 03:42:18;;;;;;;32.73;20.20;;;;;;;12.33;86.79;93709.79;1795547;80;21052;-51
2021/05/02 03:44:46;;;;;;;36.13;23.10;;;;;;;12.31;86.68;93715.64;1795446;78;21122;-50
2021/05/02 03:47:14;;;;;;;35.70;21.70;;;;;;;12.27;86.98;93705.45;1795392;80;21841;-52
2021/05/02 03:49:44;;;;;;;32.15;21.33;;;;;;;12.28;87.01;93697.31;1795361;80;21126;-50
2021/05/02 03:52:15;;;;;;;28.77;20.02;;;;;;;12.29;86.90;93700.20;1795377;78;21535;-52
2021/05/02 03:54:43;;;;;;;30.50;19.62;;;;;;;12.30;87.02;93705.22;1795382;80;21127;-51
2021/05/02 03:57:11;;;;;;;31.80;19.25;;;;;;;12.33;87.09;93700.14;1795278;79;21032;-52
2021/05/02 03:59:40;;;;;;;28.45;18.17;;;;;;;12.36;87.00;93706.06;1795385;80;21192;-53
2021/05/02 04:02:08;;;;;;;24.37;17.45;;;;;;;12.37;86.78;93705.42;1795281;78;21106;-52
2021/05/02 04:04:36;;;;;;;29.27;18.35;;;;;;;12.32;86.67;93701.38;1795382;79;21106;-51
2021/05/02 04:07:10;;;;;;;27.30;19.27;;;;;;;12.35;87.01;93690.76;1795400;80;21155;-51
2021/05/02 04:09:41;;;;;;;33.15;21.07;;;;;;;12.35;86.74;93693.52;1795454;80;21051;-50
2021/05/02 04:12:10;;;;;;;31.48;20.82;;;;;;;12.37;87.21;93691.03;1795500;80;22096;-51
2021/05/02 04:14:38;;;;;;;32.85;21.00;;;;;;;12.40;87.00;93694.80;1795312;80;21065;-51
2021/05/02 04:17:13;;;;;;;31.45;21.05;;;;;;;12.41;86.91;93690.83;1795346;80;21100;-51
2021/05/02 04:19:47;;;;;;;31.77;23.15;;;;;;;12.46;86.84;93692.25;1795490;80;21647;-51
2021/05/02 04:22:17;;;;;;;31.90;22.02;;;;;;;12.50;86.81;93692.82;1795524;80;21134;-53
2021/05/02 04:24:46;;;;;;;32.28;22.85;;;;;;;12.52;86.63;93686.19;1795332;80;21460;-51
2021/05/02 04:27:16;;;;;;;41.65;24.00;;;;;;;12.53;86.68;93682.93;1795355;80;21579;-52
2021/05/02 04:29:44;;;;;;;37.35;25.23;;;;;;;12.56;86.55;93682.59;1795259;80;21135;-53
2021/05/02 04:32:11;;;;;;;37.90;23.90;;;;;;;12.58;86.32;93678.12;1795427;80;21044;-51
2021/05/02 04:34:40;;;;;;;31.62;21.42;;;;;;;12.61;86.40;93681.89;1795381;80;21095;-51
2021/05/02 04:37:08;;;;;;;37.67;25.25;;;;;;;12.66;86.50;93686.70;1795261;80;21319;-50
2021/05/02 04:39:37;;;;;;;40.35;26.97;;;;;;;12.68;86.22;93678.72;1795251;80;21095;-51
2021/05/02 04:42:07;;;;;;;41.28;26.55;;;;;;;12.72;86.05;93677.88;1795271;78;21123;-52
2021/05/02 04:44:34;;;;;;;50.12;29.25;;;;;;;12.77;86.30;93677.17;1795348;80;21150;-53
2021/05/02 04:47:03;;;;;;;45.70;32.80;;;;;;;12.85;85.98;93672.72;1795412;80;21167;-52
2021/05/02 04:49:31;;;;;;;48.10;30.32;;;;;;;12.82;85.29;93666.19;1795383;78;21361;-51
2021/05/02 04:51:59;;;;;;;39.90;26.77;;;;;;;12.76;85.15;93665.39;1795385;80;21909;-52
2021/05/02 04:54:27;;;;;;;46.48;27.35;;;;;;;12.71;85.20;93657.05;1795325;80;21146;-52
2021/05/02 04:56:54;;;;;;;39.23;26.57;;;;;;;12.72;85.73;93662.70;1795127;79;21111;-53
2021/05/02 04:59:23;;;;;;;43.52;26.50;;;;;;;12.82;86.03;93670.94;1795362;80;21186;-52
2021/05/02 05:01:51;;;;;;;33.63;25.00;;;;;;;12.90;85.87;93664.50;1795360;78;21187;-51
2021/05/02 05:04:19;;;;;;;42.40;24.65;;;;;;;12.96;85.68;93664.59;1795267;78;21071;-54
2021/05/02 05:06:47;;;;;;;34.95;25.02;;;;;;;13.03;85.26;93666.90;1777893;80;21044;-52
2021/05/02 05:09:15;;;;;;;33.98;24.47;;;;;;;13.08;85.12;93670.36;1795283;80;21111;-52
2021/05/02 05:11:43;;;;;;;33.33;24.43;;;;;;;13.19;85.48;93667.06;1795350;80;21163;-52
2021/05/02 05:14:11;;;;;;;34.70;24.75;;;;;;;13.33;84.97;93673.70;1795393;80;22175;-50
2021/05/02 05:16:39;;;;;;;32.00;23.45;;;;;;;13.35;84.63;93671.20;1795259;80;21007;-51
2021/05/02 05:19:10;;;;;;;26.90;20.65;;;;;;;13.37;84.63;93674.22;1795429;79;21057;-50
2021/05/02 05:21:38;;;;;;;32.30;23.60;;;;;;;13.39;84.36;93678.62;1795361;80;22064;-51
2021/05/02 05:24:07;;;;;;;30.88;20.88;;;;;;;13.42;84.52;93672.15;1795361;80;21218;-52
2021/05/02 05:26:35;;;;;;;29.63;20.20;;;;;;;13.49;84.37;93670.31;1795446;79;22117;-51
2021/05/02 05:29:03;;;;;;;33.88;21.75;;;;;;;13.56;84.09;93665.70;1795289;80;21248;-50
2021/05/02 05:31:33;;;;;;;32.83;19.62;;;;;;;13.56;83.86;93661.55;1794863;79;21135;-54
2021/05/02 05:34:01;;;;;;;34.58;22.37;;;;;;;13.58;83.62;93664.58;1795296;80;21150;-51
2021/05/02 05:36:31;;;;;;;33.18;21.50;;;;;;;13.58;83.82;93670.11;1795245;79;21178;-50
2021/05/02 05:39:00;;;;;;;32.88;20.27;;;;;;;13.63;83.45;93673.55;1795307;80;21201;-50
2021/05/02 05:41:28;;;;;;;33.28;20.00;;;;;;;13.68;83.01;93670.06;1795231;80;21063;-51
2021/05/02 05:43:56;;;;;;;26.48;16.45;;;;;;;13.70;82.45;93663.41;1795354;80;21118;-52
2021/05/02 05:46:25;;;;;;;22.00;16.17;;;;;;;13.72;82.31;93654.00;1795327;80;21167;-53
2021/05/02 05:48:53;;;;;;;20.90;15.75;;;;;;;13.76;82.48;93654.52;1795283;78;21182;-52
2021/05/02 05:51:21;;;;;;;17.45;12.03;;;;;;;13.87;82.36;93649.07;1795293;80;23597;-50
2021/05/02 05:53:49;;;;;;;17.07;10.85;;;;;;;13.99;81.85;93642.36;1795268;80;21083;-51
2021/05/02 05:56:17;;;;;;;17.23;11.28;;;;;;;14.12;81.28;93641.27;1795144;80;21170;-51
2021/05/02 05:58:45;;;;;;;14.93;9.83;;;;;;;14.23;80.42;93651.04;1795322;80;21099;-53
2021/05/02 06:01:13;;;;;;;19.15;11.65;;;;;;;14.28;79.11;93650.30;1795298;80;21149;-53
2021/05/02 06:03:41;;;;;;;16.95;12.68;;;;;;;14.29;78.65;93648.43;1795199;78;21250;-52
2021/05/02 06:06:10;;;;;;;14.60;11.10;;;;;;;14.32;78.40;93648.81;1795357;80;21083;-53
2021/05/02 06:08:39;;;;;;;20.00;13.43;;;;;;;14.32;78.25;93650.20;1795407;78;21096;-51
2021/05/02 06:11:07;;;;;;;23.77;13.20;;;;;;;14.31;78.26;93643.16;1795286;80;21063;-52
2021/05/02 06:13:35;;;;;;;20.85;13.88;;;;;;;14.34;78.00;93649.72;1795308;80;21115;-51
2021/05/02 06:16:04;;;;;;;13.78;9.58;;;;;;;14.31;77.90;93642.38;1795259;80;21203;-52
2021/05/02 06:18:33;;;;;;;15.60;10.78;;;;;;;14.24;77.89;93644.25;1795242;80;21170;-52
2021/05/02 06:21:02;;;;;;;19.70;13.58;;;;;;;14.21;77.56;93638.34;1795314;80;21177;-52
2021/05/02 06:23:30;;;;;;;45.95;26.87;;;;;;;14.20;77.64;93642.36;1795311;80;21055;-52
2021/05/02 06:25:58;;;;;;;37.98;23.87;;;;;;;14.21;77.85;93650.78;1795329;80;21052;-53
2021/05/02 06:28:26;;;;;;;30.60;19.20;;;;;;;14.23;77.79;93655.95;1795265;80;21256;-52
2021/05/02 06:30:54;;;;;;;22.37;15.28;;;;;;;14.19;77.94;93655.41;1795253;80;21067;-50
2021/05/02 06:33:23;;;;;;;22.13;14.98;;;;;;;14.16;77.96;93651.52;1795391;80;21418;-53
2021/05/02 06:35:51;;;;;;;28.32;17.67;;;;;;;14.15;78.31;93654.88;1795457;80;21107;-53
2021/05/02 06:38:19;;;;;;;30.90;17.60;;;;;;;14.25;78.40;93653.45;1795505;80;21488;-52
2021/05/02 06:40:48;;;;;;;22.42;14.53;;;;;;;14.34;78.93;93638.00;1795457;80;21260;-52
2021/05/02 06:43:17;;;;;;;23.35;14.38;;;;;;;14.48;79.59;93630.88;1795409;80;21158;-51
2021/05/02 06:45:45;;;;;;;22.17;14.33;;;;;;;14.65;79.72;93620.61;1795528;80;21127;-52
2021/05/02 06:48:13;;;;;;;18.73;12.15;;;;;;;14.83;79.31;93620.78;1795438;80;21159;-52
2021/05/02 06:50:41;;;;;;;27.27;18.02;;;;;;;14.93;77.78;93625.58;1795469;80;21044;-52
2021/05/02 06:53:09;;;;;;;38.45;22.90;;;;;;;14.91;77.39;93623.94;1795473;80;21252;-51
2021/05/02 06:55:39;;;;;;;36.63;24.77;;;;;;;14.83;77.30;93618.75;1795318;80;21080;-52
2021/05/02 06:58:08;;;;;;;28.17;16.67;;;;;;;14.83;77.73;93622.16;1795347;80;21119;-51
2021/05/02 07:00:37;;;;;;;22.00;14.70;;;;;;;14.90;77.54;93622.43;1795422;80;21555;-52
2021/05/02 07:03:06;;;;;;;20.70;14.98;;;;;;;14.92;77.15;93623.30;1795477;78;21544;-53
2021/05/02 07:05:35;;;;;;;18.67;11.50;;;;;;;14.92;76.70;93614.37;1795429;79;21369;-53
2021/05/02 07:08:04;;;;;;;22.48;13.20;;;;;;;14.94;76.44;93610.47;1795453;80;21165;-52
2021/05/02 07:10:31;;;;;;;20.17;12.15;;;;;;;14.92;76.45;93607.45;1795460;80;21071;-52
2021/05/02 07:12:59;;;;;;;19.05;10.72;;;;;;;14.97;76.34;93616.38;1795442;80;21095;-51
2021/05/02 07:15:27;;;;;;;15.13;9.68;;;;;;;14.98;76.09;93604.05;1795419;80;21067;-52
2021/05/02 07:17:55;;;;;;;15.72;9.80;;;;;;;14.97;76.05;93608.08;1795452;80;21376;-51
2021/05/02 07:20:24;;;;;;;13.38;7.95;;;;;;;15.02;75.85;93596.23;1795352;80;21166;-52
2021/05/02 07:22:54;;;;;;;9.30;6.33;;;;;;;15.07;75.66;93609.97;1795532;80;21091;-51
2021/05/02 07:25:23;;;;;;;10.48;6.03;;;;;;;15.03;75.21;93606.70;1795438;80;21060;-50
2021/05/02 07:27:51;;;;;;;9.78;5.28;;;;;;;14.89;75.47;93602.16;1795454;80;21075;-52
2021/05/02 07:30:21;;;;;;;10.45;5.70;;;;;;;14.82;75.81;93603.40;1795430;80;21426;-51
2021/05/02 07:32:51;;;;;;;11.43;6.10;;;;;;;14.82;75.90;93597.86;1795386;80;21507;-53
2021/05/02 07:35:20;;;;;;;8.35;5.25;;;;;;;14.91;76.17;93596.86;1795323;80;21122;-51
2021/05/02 07:37:48;;;;;;;13.70;6.60;;;;;;;15.00;75.82;93593.22;1795439;80;21064;-52
2021/05/02 07:40:17;;;;;;;11.30;5.67;;;;;;;15.08;75.68;93590.09;1795457;80;21120;-52
2021/05/02 07:42:45;;;;;;;9.53;5.95;;;;;;;15.16;75.45;93593.86;1795455;80;21439;-52
2021/05/02 07:45:13;;;;;;;9.60;5.95;;;;;;;15.29;75.25;93589.22;1795317;80;21575;-51
2021/05/02 07:47:42;;;;;;;9.28;6.22;;;;;;;15.44;75.52;93580.78;1795370;80;21060;-51
2021/05/02 07:50:11;;;;;;;7.70;4.75;;;;;;;15.62;75.56;93577.47;1795413;80;21080;-52
2021/05/02 07:52:42;;;;;;;9.40;4.78;;;;;;;15.81;74.26;93570.11;1795453;80;21043;-51
2021/05/02 07:55:11;;;;;;;7.60;4.70;;;;;;;15.91;73.88;93571.33;1795453;80;22152;-52
2021/05/02 07:57:40;;;;;;;8.10;5.10;;;;;;;15.94;73.28;93570.30;1796433;79;21082;-52
2021/05/02 08:00:10;;;;;;;11.35;5.42;;;;;;;15.96;73.39;93566.41;1798420;79;21060;-54
2021/05/02 08:02:41;;;;;;;7.47;5.25;;;;;;;15.99;73.37;93567.39;1798417;78;21083;-54
2021/05/02 08:05:10;;;;;;;10.68;6.00;;;;;;;16.00;73.17;93565.51;1798495;79;21083;-52
2021/05/02 08:07:38;;;;;;;13.50;6.00;;;;;;;16.00;72.90;93572.44;1798520;79;21198;-53
2021/05/02 08:10:09;;;;;;;6.60;5.15;;;;;;;15.94;72.93;93560.59;1798392;79;21091;-52
2021/05/02 08:12:37;;;;;;;9.63;6.15;;;;;;;15.88;72.70;93568.19;1798549;79;21483;-53
2021/05/02 08:15:07;;;;;;;14.35;7.90;;;;;;;15.86;72.73;93554.08;1798449;79;21079;-51
2021/05/02 08:17:36;;;;;;;11.83;8.13;;;;;;;15.84;72.91;93549.67;1798460;79;21125;-54
2021/05/02 08:20:06;;;;;;;18.45;9.58;;;;;;;15.87;72.77;93552.81;1798434;79;21185;-53
2021/05/02 08:22:34;;;;;;;16.75;8.43;;;;;;;15.88;72.73;93550.81;1798440;79;21134;-56
2021/05/02 08:25:08;;;;;;;15.25;9.55;;;;;;;15.87;72.67;93556.97;1798414;79;21146;-53
2021/05/02 08:27:37;;;;;;;;;;;;;;;15.90;72.82;93540.69;1801157;79;21593;-52
2021/05/02 08:30:08;;;;;;;12.33;6.10;;;;;;;16.02;73.12;93533.84;1798506;79;20236;-55
2021/05/02 08:32:37;;;;;;;11.68;7.65;;;;;;;16.19;73.65;93520.66;1798436;79;21072;-53
2021/05/02 08:35:08;;;;;;;11.75;7.42;;;;;;;16.31;73.94;93513.75;1798410;79;21138;-52
2021/05/02 08:37:36;;;;;;;35.13;28.02;;;;;;;16.37;73.66;93530.53;1798491;79;21167;-52
2021/05/02 08:40:06;;;;;;;25.70;17.42;;;;;;;16.48;73.10;93525.55;1798445;79;21067;-53
2021/05/02 08:42:34;;;;;;;24.47;15.53;;;;;;;16.59;73.00;93515.15;1798484;78;21153;-53
2021/05/02 08:45:03;;;;;;;21.17;12.80;;;;;;;16.67;73.00;93509.77;1798516;79;21480;-51
2021/05/02 08:47:35;;;;;;;13.03;7.47;;;;;;;16.80;73.04;93522.43;1798407;79;21091;-53
2021/05/02 08:50:10;;;;;;;14.63;8.78;;;;;;;16.89;72.51;93523.52;1798290;79;21087;-53
2021/05/02 08:52:38;;;;;;;12.53;7.72;;;;;;;16.91;72.53;93527.91;1798596;79;21483;-53
2021/05/02 08:55:08;;;;;;;13.80;8.68;;;;;;;16.96;72.78;93525.72;1798432;79;21111;-53
2021/05/02 08:57:36;;;;;;;16.10;9.50;;;;;;;16.98;73.44;93510.05;1798196;79;22173;-54
2021/05/02 09:00:06;;;;;;;12.05;8.48;;;;;;;17.05;73.39;93515.03;1798374;79;21154;-52
2021/05/02 09:02:35;;;;;;;11.43;8.25;;;;;;;17.07;72.93;93515.92;1798361;78;21590;-52
2021/05/02 09:05:06;;;;;;;19.30;11.45;;;;;;;17.12;72.94;93510.28;1798387;79;21083;-52
2021/05/02 09:07:43;;;;;;;12.50;7.92;;;;;;;17.16;72.13;93497.50;1798487;79;21150;-51
2021/05/02 09:10:18;;;;;;;13.35;8.85;;;;;;;17.09;71.82;93509.20;1798451;79;21098;-53
2021/05/02 09:13:02;;;;;;;14.55;9.58;;;;;;;16.97;71.26;93501.59;1798512;79;21116;-52
2021/05/02 09:15:31;;;;;;;23.57;12.40;;;;;;;16.91;71.63;93497.36;1798407;79;21059;-51
2021/05/02 09:18:13;;;;;;;19.67;10.85;;;;;;;16.90;71.91;93491.69;1798433;79;21075;-52
2021/05/02 09:20:45;;;;;;;17.27;10.85;;;;;;;16.95;72.70;93492.27;1797771;79;21084;-51
2021/05/02 09:23:14;;;;;;;17.23;10.05;;;;;;;17.01;73.42;93491.57;1798207;79;21259;-52
2021/05/02 09:25:54;;;;;;;20.12;11.83;;;;;;;17.19;74.19;93492.30;1798357;79;21150;-52
2021/05/02 09:28:53;;;;;;;18.75;10.75;;;;;;;17.37;74.47;93494.42;1798441;79;21051;-52
2021/05/02 09:31:31;;;;;;;16.82;8.63;;;;;;;17.50;73.54;93492.50;1798439;79;21067;-52
2021/05/02 09:34:14;;;;;;;14.28;9.60;;;;;;;17.52;72.43;93496.17;1798414;79;21202;-54
2021/05/02 09:36:59;;;;;;;16.75;9.23;;;;;;;17.57;72.05;93484.22;1798545;79;21198;-52
2021/05/02 09:39:53;;;;;;;11.75;7.80;;;;;;;17.76;72.11;93490.58;1798368;79;21116;-53
2021/05/02 09:42:35;;;;;;;12.88;8.20;;;;;;;17.97;71.07;93501.36;1797815;79;21166;-52
2021/05/02 09:47:47;;;;;;;13.08;9.58;;;;;;;18.46;71.73;93480.58;1890034;75;22209;-52
2021/05/02 09:50:25;;;;;;;12.55;8.98;;;;;;;18.75;71.01;93472.69;1860919;77;20915;-54
2021/05/02 09:53:07;;;;;;;13.75;9.45;;;;;;;19.21;73.72;93470.80;1860932;77;22194;-53
2021/05/02 09:55:41;;;;;;;19.92;10.40;;;;;;;19.66;71.85;93477.73;1861242;77;21500;-52
2021/05/02 09:58:15;;;;;;;14.38;9.60;;;;;;;20.05;71.44;93491.07;1860913;77;20974;-54
2021/05/02 10:00:54;;;;;;;16.67;10.95;;;;;;;20.36;68.11;93479.00;1860935;77;21085;-53
2021/05/02 10:03:24;;;;;;;18.87;9.38;;;;;;;20.45;68.52;93474.34;1875438;76;20925;-54
2021/05/02 10:06:06;;;;;;;12.03;7.03;;;;;;;20.51;68.08;93477.76;1881653;75;21184;-54
2021/05/02 10:08:37;;;;;;;11.10;4.92;;;;;;;20.62;66.75;93481.72;1807107;79;21996;-52
2021/05/02 10:11:07;;;;;;;5.08;3.50;;;;;;;20.87;64.62;93478.11;1822215;78;21063;-51
2021/05/02 10:13:38;;;;;;;6.08;3.90;;;;;;;21.13;63.49;93473.05;1807042;79;21186;-53
2021/05/02 10:16:06;;;;;;;8.45;3.47;;;;;;;21.43;63.66;93478.88;1822802;78;21173;-54
2021/05/02 10:18:36;;;;;;;6.12;3.72;;;;;;;21.53;62.30;93478.50;1807047;79;22322;-55
2021/05/02 10:21:07;;;;;;;7.60;3.80;;;;;;;21.49;61.65;93479.51;1822773;78;21480;-54
2021/05/02 10:23:36;;;;;;;8.90;4.65;;;;;;;21.42;61.60;93480.94;1822757;78;21063;-52
2021/05/02 10:26:05;;;;;;;7.00;3.30;;;;;;;21.55;60.82;93478.70;1822676;78;21103;-52
2021/05/02 10:28:34;;;;;;;9.03;3.52;;;;;;;21.87;61.51;93487.55;1822815;78;21471;-54
2021/05/02 10:31:05;;;;;;;3.10;2.50;;;;;;;22.16;59.92;93489.15;1807057;79;21436;-54
2021/05/02 10:33:41;;;;;;;4.92;2.47;;;;;;;22.50;58.23;93485.48;1822755;78;21084;-55
2021/05/02 10:36:22;;;;;;;5.15;2.33;;;;;;;22.69;56.91;93484.53;1807034;78;21480;-54
2021/05/02 10:38:59;;;;;;;5.67;2.22;;;;;;;22.97;55.02;93480.23;1822872;78;21083;-54
2021/05/02 10:41:38;;;;;;;8.50;2.05;;;;;;;23.26;53.17;93478.82;1818525;78;21107;-54
2021/05/02 10:44:19;;;;;;;6.62;2.17;;;;;;;23.57;53.18;93476.77;1807008;79;20938;-53
2021/05/02 10:46:58;;;;;;;10.68;2.95;;;;;;;23.84;51.72;93484.28;1822500;78;21132;-54
2021/05/02 10:49:35;;;;;;;5.83;3.65;;;;;;;23.74;51.25;93486.12;1807017;79;21151;-53
2021/05/02 10:52:32;;;;;;;5.58;3.65;;;;;;;23.43;51.50;93482.47;1822809;78;21040;-53
2021/05/02 10:55:13;;;;;;;4.87;3.22;;;;;;;22.87;54.09;93489.07;1873580;75;22298;-57
2021/05/02 10:57:41;;;;;;;5.70;4.22;;;;;;;22.49;55.73;93495.20;1841672;77;20994;-53
2021/05/02 11:00:12;;;;;;;9.63;3.75;;;;;;;22.14;56.32;93491.72;1841528;77;21336;-54
2021/05/02 11:02:45;;;;;;;4.08;3.20;;;;;;;21.86;55.79;93494.45;1828230;78;21137;-54
2021/05/02 11:05:15;;;;;;;5.30;3.75;;;;;;;21.65;56.82;93490.95;1808510;79;21081;-53
2021/05/02 11:07:45;;;;;;;10.70;5.30;;;;;;;21.68;57.44;93481.45;1808463;79;21129;-54
2021/05/02 11:10:16;;;;;;;6.15;3.62;;;;;;;21.86;57.92;93469.25;1808658;78;21478;-55
2021/05/02 11:12:46;;;;;;;4.80;3.50;;;;;;;22.44;57.58;93479.30;1808524;78;21173;-55
2021/05/02 11:15:32;;;;;;;8.50;4.62;;;;;;;23.01;54.28;93474.99;1808525;79;21081;-54
2021/05/02 11:18:02;;;;;;;6.65;3.50;;;;;;;23.49;53.84;93479.58;1808345;78;20998;-54
2021/05/02 11:20:51;;;;;;;7.10;2.80;;;;;;;23.77;51.29;93484.98;1780102;79;21521;-54
2021/05/02 11:23:40;;;;;;;9.40;2.83;;;;;;;23.86;50.30;93495.70;1808579;78;21616;-54
2021/05/02 11:26:09;;;;;;;6.40;3.50;;;;;;;23.89;49.74;93498.78;1808525;79;21192;-54
2021/05/02 11:28:57;;;;;;;10.18;4.03;;;;;;;24.19;49.01;93486.09;1780004;79;21247;-54
2021/05/02 11:31:14;;;;;;;15.18;5.15;;;;;;;24.47;48.05;93492.84;1806360;79;21082;-54
2021/05/02 11:33:42;;;;;;;9.83;2.95;;;;;;;24.74;47.63;93490.42;1808431;79;21141;-53
2021/05/02 11:36:20;;;;;;;10.32;2.67;;;;;;;25.07;46.27;93485.56;1808467;78;21132;-55
2021/05/02 11:38:50;;;;;;;12.07;3.58;;;;;;;25.11;46.16;93497.94;1806826;78;21148;-55
2021/05/02 11:41:18;;;;;;;11.22;4.50;;;;;;;24.96;45.48;93482.53;1808447;78;21100;-53
2021/05/02 11:43:48;;;;;;;11.53;3.75;;;;;;;24.60;45.33;93474.37;1808510;78;21077;-55